sensor_id;sensor_type;location;lat;lon;timestamp;pressure;altitude;pressure_sealevel;temperature;humidity
19596;BME280;9945;46.010;8.946;2023-03-20T00:00:28;97483.06;;;13.35;66.30
19596;BME280;9945;46.010;8.946;2023-03-20T00:02:55;97492.97;;;13.15;67.56
19596;BME280;9945;46.010;8.946;2023-03-20T00:05:23;97482.75;;;13.12;68.09
19596;BME280;9945;46.010;8.946;2023-03-20T00:07:52;97486.75;;;13.16;68.22
19596;BME280;9945;46.010;8.946;2023-03-20T00:10:20;97487.88;;;13.14;68.26
19596;BME280;9945;46.010;8.946;2023-03-20T00:12:49;97491.59;;;13.11;66.26
19596;BME280;9945;46.010;8.946;2023-03-20T00:15:28;97490.59;;;13.04;67.05
19596;BME280;9945;46.010;8.946;2023-03-20T00:17:55;97487.13;;;13.04;66.30
19596;BME280;9945;46.010;8.946;2023-03-20T00:20:22;97489.31;;;13.08;65.71
19596;BME280;9945;46.010;8.946;2023-03-20T00:22:51;97488.75;;;12.97;67.65
19596;BME280;9945;46.010;8.946;2023-03-20T00:25:21;97485.28;;;12.96;68.23
19596;BME280;9945;46.010;8.946;2023-03-20T00:27:49;97481.28;;;13.10;65.19
19596;BME280;9945;46.010;8.946;2023-03-20T00:30:23;97487.16;;;13.12;66.67
19596;BME280;9945;46.010;8.946;2023-03-20T00:32:51;97484.53;;;13.12;67.36
19596;BME280;9945;46.010;8.946;2023-03-20T00:35:21;97480.75;;;13.06;67.31
19596;BME280;9945;46.010;8.946;2023-03-20T00:37:49;97490.44;;;13.06;66.57
19596;BME280;9945;46.010;8.946;2023-03-20T00:40:18;97494.19;;;13.03;67.96
19596;BME280;9945;46.010;8.946;2023-03-20T00:42:48;97484.66;;;13.02;67.99
19596;BME280;9945;46.010;8.946;2023-03-20T00:45:18;97480.41;;;13.01;66.55
19596;BME280;9945;46.010;8.946;2023-03-20T00:47:48;97480.97;;;12.61;68.71
19596;BME280;9945;46.010;8.946;2023-03-20T00:50:18;97480.00;;;12.62;70.29
19596;BME280;9945;46.010;8.946;2023-03-20T00:52:46;97488.91;;;12.69;70.24
19596;BME280;9945;46.010;8.946;2023-03-20T00:55:14;97481.41;;;12.74;68.63
19596;BME280;9945;46.010;8.946;2023-03-20T00:57:45;97479.69;;;12.65;68.28
19596;BME280;9945;46.010;8.946;2023-03-20T01:00:23;97480.00;;;12.62;68.66
19596;BME280;9945;46.010;8.946;2023-03-20T01:02:53;97483.16;;;12.66;68.72
19596;BME280;9945;46.010;8.946;2023-03-20T01:05:22;97480.50;;;12.66;68.62
19596;BME280;9945;46.010;8.946;2023-03-20T01:07:49;97479.53;;;12.67;68.01
19596;BME280;9945;46.010;8.946;2023-03-20T01:10:16;97475.44;;;12.46;69.30
19596;BME280;9945;46.010;8.946;2023-03-20T01:12:45;97477.09;;;12.47;68.88
19596;BME280;9945;46.010;8.946;2023-03-20T01:15:21;97476.34;;;12.55;67.61
19596;BME280;9945;46.010;8.946;2023-03-20T01:17:48;97481.53;;;12.47;68.54
19596;BME280;9945;46.010;8.946;2023-03-20T01:20:18;97480.41;;;12.49;68.78
19596;BME280;9945;46.010;8.946;2023-03-20T01:22:46;97472.91;;;12.37;69.79
19596;BME280;9945;46.010;8.946;2023-03-20T01:25:14;97480.50;;;12.40;69.23
19596;BME280;9945;46.010;8.946;2023-03-20T01:27:44;97481.34;;;12.23;69.60
19596;BME280;9945;46.010;8.946;2023-03-20T01:30:19;97476.78;;;12.25;68.36
19596;BME280;9945;46.010;8.946;2023-03-20T01:32:46;97474.50;;;12.30;67.30
19596;BME280;9945;46.010;8.946;2023-03-20T01:35:18;97474.03;;;12.34;68.50
19596;BME280;9945;46.010;8.946;2023-03-20T01:37:46;97469.31;;;12.38;68.26
19596;BME280;9945;46.010;8.946;2023-03-20T01:40:21;97470.69;;;12.24;69.16
19596;BME280;9945;46.010;8.946;2023-03-20T01:42:53;97467.91;;;12.26;69.04
19596;BME280;9945;46.010;8.946;2023-03-20T01:45:23;97471.44;;;12.17;69.61
19596;BME280;9945;46.010;8.946;2023-03-20T01:47:51;97463.88;;;12.13;68.53
19596;BME280;9945;46.010;8.946;2023-03-20T01:50:27;97466.78;;;12.28;66.77
19596;BME280;9945;46.010;8.946;2023-03-20T01:52:59;97455.78;;;12.25;68.23
19596;BME280;9945;46.010;8.946;2023-03-20T01:55:28;97456.75;;;12.24;67.15
19596;BME280;9945;46.010;8.946;2023-03-20T01:58:00;97447.16;;;12.15;69.26
19596;BME280;9945;46.010;8.946;2023-03-20T02:00:28;97451.25;;;12.17;69.17
19596;BME280;9945;46.010;8.946;2023-03-20T02:02:57;97447.59;;;12.10;68.37
19596;BME280;9945;46.010;8.946;2023-03-20T02:05:24;97441.97;;;12.05;68.35
19596;BME280;9945;46.010;8.946;2023-03-20T02:08:01;97440.25;;;11.96;68.67
19596;BME280;9945;46.010;8.946;2023-03-20T02:10:31;97439.81;;;11.83;70.16
19596;BME280;9945;46.010;8.946;2023-03-20T02:13:00;97445.66;;;11.94;69.04
19596;BME280;9945;46.010;8.946;2023-03-20T02:15:29;97438.59;;;11.95;70.21
19596;BME280;9945;46.010;8.946;2023-03-20T02:17:56;97443.19;;;11.93;69.08
19596;BME280;9945;46.010;8.946;2023-03-20T02:20:32;97433.66;;;11.92;70.03
19596;BME280;9945;46.010;8.946;2023-03-20T02:23:52;97440.94;;;11.80;69.98
19596;BME280;9945;46.010;8.946;2023-03-20T02:26:37;97433.66;;;11.92;69.13
19596;BME280;9945;46.010;8.946;2023-03-20T02:29:29;97429.41;;;11.91;69.18
19596;BME280;9945;46.010;8.946;2023-03-20T02:32:40;97439.72;;;11.74;70.08
19596;BME280;9945;46.010;8.946;2023-03-20T02:38:43;97435.69;;;11.80;71.12
19596;BME280;9945;46.010;8.946;2023-03-20T02:41:20;97438.59;;;11.77;71.33
19596;BME280;9945;46.010;8.946;2023-03-20T02:43:54;97436.34;;;11.64;71.29
19596;BME280;9945;46.010;8.946;2023-03-20T02:46:34;97436.13;;;11.75;70.46
19596;BME280;9945;46.010;8.946;2023-03-20T02:49:16;97432.25;;;11.80;70.19
19596;BME280;9945;46.010;8.946;2023-03-20T02:51:54;97429.91;;;11.77;70.25
19596;BME280;9945;46.010;8.946;2023-03-20T02:54:27;97425.53;;;11.67;71.73
19596;BME280;9945;46.010;8.946;2023-03-20T02:57:00;97425.53;;;11.67;71.63
19596;BME280;9945;46.010;8.946;2023-03-20T02:59:31;97427.88;;;11.70;71.38
19596;BME280;9945;46.010;8.946;2023-03-20T03:02:05;97426.00;;;11.63;71.80
19596;BME280;9945;46.010;8.946;2023-03-20T03:04:36;97429.03;;;11.58;72.18
19596;BME280;9945;46.010;8.946;2023-03-20T03:07:05;97423.59;;;11.52;72.57
19596;BME280;9945;46.010;8.946;2023-03-20T03:09:39;97427.50;;;11.48;72.19
19596;BME280;9945;46.010;8.946;2023-03-20T03:12:10;97428.69;;;11.53;72.34
19596;BME280;9945;46.010;8.946;2023-03-20T03:14:41;97431.03;;;11.56;71.87
19596;BME280;9945;46.010;8.946;2023-03-20T03:17:11;97428.97;;;11.50;71.63
19596;BME280;9945;46.010;8.946;2023-03-20T03:19:42;97432.63;;;11.57;71.68
19596;BME280;9945;46.010;8.946;2023-03-20T03:22:12;97431.44;;;11.52;72.16
19596;BME280;9945;46.010;8.946;2023-03-20T03:24:44;97431.84;;;11.57;70.91
19596;BME280;9945;46.010;8.946;2023-03-20T03:27:16;97440.50;;;11.57;70.75
19596;BME280;9945;46.010;8.946;2023-03-20T03:29:48;97443.81;;;11.59;71.09
19596;BME280;9945;46.010;8.946;2023-03-20T03:32:26;97442.16;;;11.58;71.14
19596;BME280;9945;46.010;8.946;2023-03-20T03:34:53;97440.81;;;11.54;70.40
19596;BME280;9945;46.010;8.946;2023-03-20T03:37:27;97439.00;;;11.37;71.79
19596;BME280;9945;46.010;8.946;2023-03-20T03:40:04;97439.50;;;11.41;72.06
19596;BME280;9945;46.010;8.946;2023-03-20T03:42:38;97441.53;;;11.29;72.58
19596;BME280;9945;46.010;8.946;2023-03-20T03:45:10;97453.13;;;11.26;72.68
19596;BME280;9945;46.010;8.946;2023-03-20T03:47:43;97447.47;;;11.31;71.65
19596;BME280;9945;46.010;8.946;2023-03-20T03:52:42;97450.59;;;11.34;71.71
19596;BME280;9945;46.010;8.946;2023-03-20T03:55:14;97458.75;;;11.31;71.77
19596;BME280;9945;46.010;8.946;2023-03-20T03:57:49;97447.47;;;11.31;71.76
19596;BME280;9945;46.010;8.946;2023-03-20T04:00:20;97455.47;;;11.29;71.53
19596;BME280;9945;46.010;8.946;2023-03-20T04:02:51;97454.41;;;11.22;72.18
19596;BME280;9945;46.010;8.946;2023-03-20T04:05:19;97458.28;;;11.18;72.54
19596;BME280;9945;46.010;8.946;2023-03-20T04:07:51;97459.09;;;11.19;71.96
19596;BME280;9945;46.010;8.946;2023-03-20T04:10:19;97463.44;;;11.00;73.68
19596;BME280;9945;46.010;8.946;2023-03-20T04:12:46;97464.81;;;11.05;73.24
19596;BME280;9945;46.010;8.946;2023-03-20T04:15:14;97460.66;;;11.12;72.98
19596;BME280;9945;46.010;8.946;2023-03-20T04:17:42;97462.22;;;11.05;73.48
19596;BME280;9945;46.010;8.946;2023-03-20T04:20:10;97461.94;;;10.98;73.98
19596;BME280;9945;46.010;8.946;2023-03-20T04:22:37;97472.94;;;11.11;73.36
19596;BME280;9945;46.010;8.946;2023-03-20T04:25:06;97472.66;;;11.14;72.39
19596;BME280;9945;46.010;8.946;2023-03-20T04:27:36;97470.41;;;11.19;72.35
19596;BME280;9945;46.010;8.946;2023-03-20T04:30:03;97478.44;;;11.08;72.61
19596;BME280;9945;46.010;8.946;2023-03-20T04:32:30;97481.22;;;11.07;73.09
19596;BME280;9945;46.010;8.946;2023-03-20T04:34:57;97477.75;;;11.06;73.55
19596;BME280;9945;46.010;8.946;2023-03-20T04:37:24;97471.03;;;11.04;73.58
19596;BME280;9945;46.010;8.946;2023-03-20T04:39:51;97474.84;;;11.09;73.04
19596;BME280;9945;46.010;8.946;2023-03-20T04:42:18;97475.31;;;11.05;73.10
19596;BME280;9945;46.010;8.946;2023-03-20T04:44:46;97474.34;;;11.06;73.29
19596;BME280;9945;46.010;8.946;2023-03-20T04:47:13;97480.00;;;11.01;74.04
19596;BME280;9945;46.010;8.946;2023-03-20T04:49:40;97480.53;;;11.05;73.22
19596;BME280;9945;46.010;8.946;2023-03-20T04:52:07;97479.63;;;10.96;73.49
19596;BME280;9945;46.010;8.946;2023-03-20T04:54:34;97473.09;;;11.00;73.44
19596;BME280;9945;46.010;8.946;2023-03-20T04:57:01;97477.41;;;10.91;74.11
19596;BME280;9945;46.010;8.946;2023-03-20T04:59:28;97470.47;;;11.00;73.55
19596;BME280;9945;46.010;8.946;2023-03-20T05:01:56;97472.97;;;11.02;72.79
19596;BME280;9945;46.010;8.946;2023-03-20T05:04:23;97476.69;;;10.99;72.92
19596;BME280;9945;46.010;8.946;2023-03-20T05:06:49;97472.28;;;10.99;73.18
19596;BME280;9945;46.010;8.946;2023-03-20T05:09:16;97481.81;;;10.91;73.75
19596;BME280;9945;46.010;8.946;2023-03-20T05:11:43;97483.19;;;10.95;73.09
19596;BME280;9945;46.010;8.946;2023-03-20T05:14:10;97484.44;;;10.91;72.99
19596;BME280;9945;46.010;8.946;2023-03-20T05:16:37;97475.63;;;10.92;73.10
19596;BME280;9945;46.010;8.946;2023-03-20T05:19:05;97483.91;;;10.87;73.44
19596;BME280;9945;46.010;8.946;2023-03-20T05:21:32;97484.47;;;10.81;73.43
19596;BME280;9945;46.010;8.946;2023-03-20T05:23:59;97480.13;;;10.63;75.43
19596;BME280;9945;46.010;8.946;2023-03-20T05:26:26;97480.63;;;10.76;73.70
19596;BME280;9945;46.010;8.946;2023-03-20T05:28:53;97487.56;;;10.57;74.83
19596;BME280;9945;46.010;8.946;2023-03-20T05:31:20;97481.94;;;10.62;74.70
19596;BME280;9945;46.010;8.946;2023-03-20T05:33:46;97489.22;;;10.58;74.75
19596;BME280;9945;46.010;8.946;2023-03-20T05:36:15;97483.69;;;10.71;73.72
19596;BME280;9945;46.010;8.946;2023-03-20T05:38:42;97485.59;;;10.79;73.26
19596;BME280;9945;46.010;8.946;2023-03-20T05:41:08;97486.03;;;10.55;74.40
19596;BME280;9945;46.010;8.946;2023-03-20T05:43:35;97486.44;;;10.70;73.68
19596;BME280;9945;46.010;8.946;2023-03-20T05:46:02;97491.13;;;10.66;73.89
19596;BME280;9945;46.010;8.946;2023-03-20T05:48:29;97498.47;;;10.63;74.61
19596;BME280;9945;46.010;8.946;2023-03-20T05:50:56;97502.03;;;10.71;74.49
19596;BME280;9945;46.010;8.946;2023-03-20T05:53:24;97504.94;;;10.58;74.70
19596;BME280;9945;46.010;8.946;2023-03-20T05:55:51;97502.84;;;10.72;73.95
19596;BME280;9945;46.010;8.946;2023-03-20T05:58:18;97509.47;;;10.66;74.56
19596;BME280;9945;46.010;8.946;2023-03-20T06:00:45;97507.41;;;10.70;74.00
19596;BME280;9945;46.010;8.946;2023-03-20T06:03:12;97506.00;;;10.66;74.64
19596;BME280;9945;46.010;8.946;2023-03-20T06:05:39;97515.13;;;10.71;73.98
19596;BME280;9945;46.010;8.946;2023-03-20T06:08:06;97514.28;;;10.71;73.98
19596;BME280;9945;46.010;8.946;2023-03-20T06:10:34;97515.66;;;10.65;74.48
19596;BME280;9945;46.010;8.946;2023-03-20T06:13:01;97516.22;;;10.69;74.55
19596;BME280;9945;46.010;8.946;2023-03-20T06:15:28;97524.75;;;10.71;75.73
19596;BME280;9945;46.010;8.946;2023-03-20T06:17:55;97529.28;;;10.78;75.09
19596;BME280;9945;46.010;8.946;2023-03-20T06:20:23;97529.09;;;10.99;74.08
19596;BME280;9945;46.010;8.946;2023-03-20T06:22:50;97533.94;;;10.94;73.62
19596;BME280;9945;46.010;8.946;2023-03-20T06:25:18;97532.84;;;10.96;73.25
19596;BME280;9945;46.010;8.946;2023-03-20T06:27:47;97537.88;;;11.08;73.48
19596;BME280;9945;46.010;8.946;2023-03-20T06:30:14;97528.16;;;11.27;71.97
19596;BME280;9945;46.010;8.946;2023-03-20T06:32:42;97520.72;;;11.23;72.51
19596;BME280;9945;46.010;8.946;2023-03-20T06:35:09;97522.53;;;11.50;71.17
19596;BME280;9945;46.010;8.946;2023-03-20T06:37:36;97523.75;;;11.55;70.72
19596;BME280;9945;46.010;8.946;2023-03-20T06:40:05;97523.06;;;11.53;70.71
19596;BME280;9945;46.010;8.946;2023-03-20T06:42:32;97514.97;;;11.47;70.79
19596;BME280;9945;46.010;8.946;2023-03-20T06:45:00;97526.06;;;11.58;69.55
19596;BME280;9945;46.010;8.946;2023-03-20T06:47:27;97526.38;;;11.55;69.85
19596;BME280;9945;46.010;8.946;2023-03-20T06:49:54;97517.38;;;11.58;69.58
19596;BME280;9945;46.010;8.946;2023-03-20T06:52:21;97521.59;;;11.78;69.23
19596;BME280;9945;46.010;8.946;2023-03-20T06:54:49;97523.25;;;11.97;69.71
19596;BME280;9945;46.010;8.946;2023-03-20T06:57:16;97516.22;;;11.97;68.95
19596;BME280;9945;46.010;8.946;2023-03-20T06:59:43;97521.38;;;11.89;66.98
19596;BME280;9945;46.010;8.946;2023-03-20T07:02:12;97529.91;;;11.91;68.00
19596;BME280;9945;46.010;8.946;2023-03-20T07:04:39;97530.75;;;12.09;67.16
19596;BME280;9945;46.010;8.946;2023-03-20T07:07:06;97531.22;;;12.05;67.15
19596;BME280;9945;46.010;8.946;2023-03-20T07:09:33;97535.78;;;12.21;66.97
19596;BME280;9945;46.010;8.946;2023-03-20T07:12:00;97534.13;;;12.20;68.01
19596;BME280;9945;46.010;8.946;2023-03-20T07:14:27;97539.66;;;12.17;67.56
19596;BME280;9945;46.010;8.946;2023-03-20T07:16:54;97541.19;;;12.19;68.63
19596;BME280;9945;46.010;8.946;2023-03-20T07:19:22;97537.16;;;12.25;67.95
19596;BME280;9945;46.010;8.946;2023-03-20T07:21:51;97531.03;;;12.42;66.60
19596;BME280;9945;46.010;8.946;2023-03-20T07:24:19;97535.06;;;12.72;66.23
19596;BME280;9945;46.010;8.946;2023-03-20T07:26:46;97536.25;;;13.03;65.66
19596;BME280;9945;46.010;8.946;2023-03-20T07:29:13;97544.03;;;13.13;66.63
19596;BME280;9945;46.010;8.946;2023-03-20T07:31:40;97542.69;;;13.27;64.41
19596;BME280;9945;46.010;8.946;2023-03-20T07:34:08;97536.63;;;13.34;65.47
19596;BME280;9945;46.010;8.946;2023-03-20T07:36:36;97535.13;;;13.32;63.94
19596;BME280;9945;46.010;8.946;2023-03-20T07:39:03;97533.31;;;13.32;64.48
19596;BME280;9945;46.010;8.946;2023-03-20T07:41:30;97534.81;;;13.35;62.76
19596;BME280;9945;46.010;8.946;2023-03-20T07:43:57;97531.41;;;13.42;63.19
19596;BME280;9945;46.010;8.946;2023-03-20T07:46:24;97535.06;;;13.57;61.47
19596;BME280;9945;46.010;8.946;2023-03-20T07:48:51;97532.47;;;13.66;60.89
19596;BME280;9945;46.010;8.946;2023-03-20T07:51:18;97529.38;;;13.78;61.04
19596;BME280;9945;46.010;8.946;2023-03-20T07:53:46;97534.06;;;14.00;60.55
19596;BME280;9945;46.010;8.946;2023-03-20T07:56:13;97532.41;;;13.99;59.08
19596;BME280;9945;46.010;8.946;2023-03-20T07:58:39;97531.13;;;14.20;58.87
19596;BME280;9945;46.010;8.946;2023-03-20T08:01:06;97539.56;;;14.56;58.33
19596;BME280;9945;46.010;8.946;2023-03-20T08:03:33;97537.94;;;14.71;57.12
19596;BME280;9945;46.010;8.946;2023-03-20T08:06:00;97543.50;;;15.00;55.78
19596;BME280;9945;46.010;8.946;2023-03-20T08:08:28;97540.97;;;15.23;55.01
19596;BME280;9945;46.010;8.946;2023-03-20T08:10:56;97544.19;;;14.94;56.25
19596;BME280;9945;46.010;8.946;2023-03-20T08:13:23;97535.94;;;14.81;56.97
19596;BME280;9945;46.010;8.946;2023-03-20T08:15:50;97543.53;;;14.76;57.15
19596;BME280;9945;46.010;8.946;2023-03-20T08:18:17;97539.03;;;15.09;56.94
19596;BME280;9945;46.010;8.946;2023-03-20T08:20:47;97540.44;;;15.44;54.83
19596;BME280;9945;46.010;8.946;2023-03-20T08:23:14;97543.91;;;15.83;53.29
19596;BME280;9945;46.010;8.946;2023-03-20T08:25:41;97546.34;;;15.93;54.84
19596;BME280;9945;46.010;8.946;2023-03-20T08:28:13;97547.22;;;15.85;54.26
19596;BME280;9945;46.010;8.946;2023-03-20T08:30:40;97541.72;;;15.95;54.77
19596;BME280;9945;46.010;8.946;2023-03-20T08:33:07;97542.69;;;16.25;53.95
19596;BME280;9945;46.010;8.946;2023-03-20T08:35:34;97538.09;;;16.19;53.70
19596;BME280;9945;46.010;8.946;2023-03-20T08:38:02;97541.28;;;16.37;53.94
19596;BME280;9945;46.010;8.946;2023-03-20T08:40:29;97543.34;;;16.27;54.31
19596;BME280;9945;46.010;8.946;2023-03-20T08:42:56;97544.63;;;16.54;54.67
19596;BME280;9945;46.010;8.946;2023-03-20T08:45:24;97538.28;;;16.86;52.39
19596;BME280;9945;46.010;8.946;2023-03-20T08:47:51;97541.81;;;17.30;50.73
19596;BME280;9945;46.010;8.946;2023-03-20T08:50:19;97554.69;;;17.48;50.32
19596;BME280;9945;46.010;8.946;2023-03-20T08:52:46;97551.13;;;17.56;49.16
19596;BME280;9945;46.010;8.946;2023-03-20T08:55:13;97556.75;;;17.53;51.30
19596;BME280;9945;46.010;8.946;2023-03-20T08:57:41;97560.06;;;17.25;51.04
19596;BME280;9945;46.010;8.946;2023-03-20T09:00:11;97550.94;;;17.72;47.92
19596;BME280;9945;46.010;8.946;2023-03-20T09:02:40;97540.63;;;17.62;48.91
19596;BME280;9945;46.010;8.946;2023-03-20T09:05:08;97542.47;;;17.76;49.15
19596;BME280;9945;46.010;8.946;2023-03-20T09:07:36;97543.09;;;18.14;48.19
19596;BME280;9945;46.010;8.946;2023-03-20T09:10:03;97537.19;;;18.55;46.82
19596;BME280;9945;46.010;8.946;2023-03-20T09:12:30;97538.31;;;18.25;47.14
19596;BME280;9945;46.010;8.946;2023-03-20T09:14:58;97536.94;;;17.93;46.53
19596;BME280;9945;46.010;8.946;2023-03-20T09:17:25;97532.00;;;17.90;47.86
19596;BME280;9945;46.010;8.946;2023-03-20T09:19:53;97527.97;;;18.08;48.21
19596;BME280;9945;46.010;8.946;2023-03-20T09:22:20;97522.81;;;18.64;46.47
19596;BME280;9945;46.010;8.946;2023-03-20T09:24:47;97515.97;;;18.55;46.61
19596;BME280;9945;46.010;8.946;2023-03-20T09:27:14;97517.50;;;18.85;44.68
19596;BME280;9945;46.010;8.946;2023-03-20T09:29:41;97513.88;;;18.08;45.67
19596;BME280;9945;46.010;8.946;2023-03-20T09:32:10;97514.59;;;17.81;45.79
19596;BME280;9945;46.010;8.946;2023-03-20T09:34:37;97508.47;;;17.80;47.25
19596;BME280;9945;46.010;8.946;2023-03-20T09:37:06;97516.06;;;18.62;44.06
19596;BME280;9945;46.010;8.946;2023-03-20T09:39:33;97510.88;;;18.11;43.94
19596;BME280;9945;46.010;8.946;2023-03-20T09:42:13;97508.34;;;18.88;43.54
19596;BME280;9945;46.010;8.946;2023-03-20T09:44:51;97512.91;;;19.35;42.73
19596;BME280;9945;46.010;8.946;2023-03-20T09:47:27;97510.25;;;19.01;42.97
19596;BME280;9945;46.010;8.946;2023-03-20T09:50:10;97507.88;;;19.88;41.54
19596;BME280;9945;46.010;8.946;2023-03-20T09:52:45;97511.75;;;20.66;40.06
19596;BME280;9945;46.010;8.946;2023-03-20T09:55:18;97509.50;;;21.22;39.36
19596;BME280;9945;46.010;8.946;2023-03-20T09:57:49;97509.09;;;20.79;39.75
19596;BME280;9945;46.010;8.946;2023-03-20T10:00:19;97510.88;;;21.38;40.00
19596;BME280;9945;46.010;8.946;2023-03-20T10:02:50;97508.03;;;22.35;37.11
19596;BME280;9945;46.010;8.946;2023-03-20T10:05:22;97509.78;;;21.65;38.27
19596;BME280;9945;46.010;8.946;2023-03-20T10:07:51;97511.25;;;22.75;36.16
19596;BME280;9945;46.010;8.946;2023-03-20T10:10:24;97511.25;;;22.75;35.85
19596;BME280;9945;46.010;8.946;2023-03-20T10:13:02;97508.91;;;23.53;34.70
19596;BME280;9945;46.010;8.946;2023-03-20T10:15:40;97514.78;;;24.58;32.62
19596;BME280;9945;46.010;8.946;2023-03-20T10:18:15;97503.53;;;25.03;31.72
19596;BME280;9945;46.010;8.946;2023-03-20T10:20:47;97513.13;;;25.22;31.11
19596;BME280;9945;46.010;8.946;2023-03-20T10:23:26;97503.78;;;24.48;32.68
19596;BME280;9945;46.010;8.946;2023-03-20T10:25:59;97508.84;;;24.79;32.22
19596;BME280;9945;46.010;8.946;2023-03-20T10:28:31;97500.84;;;25.73;30.24
19596;BME280;9945;46.010;8.946;2023-03-20T10:31:11;97501.97;;;26.17;29.83
19596;BME280;9945;46.010;8.946;2023-03-20T10:33:53;97498.22;;;26.46;29.72
19596;BME280;9945;46.010;8.946;2023-03-20T10:36:35;97506.59;;;27.11;28.50
19596;BME280;9945;46.010;8.946;2023-03-20T10:39:14;97499.38;;;26.50;29.13
19596;BME280;9945;46.010;8.946;2023-03-20T10:41:51;97487.31;;;26.36;29.28
19596;BME280;9945;46.010;8.946;2023-03-20T10:44:26;97495.28;;;26.93;28.84
19596;BME280;9945;46.010;8.946;2023-03-20T10:46:56;97495.59;;;27.52;27.97
19596;BME280;9945;46.010;8.946;2023-03-20T10:49:29;97486.63;;;27.84;27.50
19596;BME280;9945;46.010;8.946;2023-03-20T10:52:02;97479.34;;;28.07;26.24
19596;BME280;9945;46.010;8.946;2023-03-20T10:54:34;97474.56;;;27.48;26.89
19596;BME280;9945;46.010;8.946;2023-03-20T10:57:04;97471.84;;;27.65;26.21
19596;BME280;9945;46.010;8.946;2023-03-20T10:59:35;97470.09;;;27.98;26.59
19596;BME280;9945;46.010;8.946;2023-03-20T11:02:09;97465.16;;;27.90;26.43
19596;BME280;9945;46.010;8.946;2023-03-20T11:04:36;97460.66;;;27.35;27.63
19596;BME280;9945;46.010;8.946;2023-03-20T11:07:13;97464.78;;;28.08;26.93
19596;BME280;9945;46.010;8.946;2023-03-20T11:09:44;97460.44;;;28.23;26.72
19596;BME280;9945;46.010;8.946;2023-03-20T11:12:15;97459.47;;;27.64;27.62
19596;BME280;9945;46.010;8.946;2023-03-20T11:14:42;97463.94;;;28.24;27.26
19596;BME280;9945;46.010;8.946;2023-03-20T11:17:10;97449.84;;;28.17;27.90
19596;BME280;9945;46.010;8.946;2023-03-20T11:19:38;97454.00;;;28.30;26.67
19596;BME280;9945;46.010;8.946;2023-03-20T11:22:08;97449.06;;;28.48;26.77
19596;BME280;9945;46.010;8.946;2023-03-20T11:24:38;97449.81;;;28.76;25.72
19596;BME280;9945;46.010;8.946;2023-03-20T11:27:09;97442.41;;;28.93;26.00
19596;BME280;9945;46.010;8.946;2023-03-20T11:29:37;97445.00;;;29.15;26.79
19596;BME280;9945;46.010;8.946;2023-03-20T11:32:10;97433.97;;;29.68;24.72
19596;BME280;9945;46.010;8.946;2023-03-20T11:34:40;97438.97;;;28.97;25.60
19596;BME280;9945;46.010;8.946;2023-03-20T11:37:20;97436.88;;;29.52;25.48
19596;BME280;9945;46.010;8.946;2023-03-20T11:39:57;97425.38;;;29.92;24.64
19596;BME280;9945;46.010;8.946;2023-03-20T11:42:28;97427.22;;;29.81;24.21
19596;BME280;9945;46.010;8.946;2023-03-20T11:44:57;97419.91;;;29.66;24.45
19596;BME280;9945;46.010;8.946;2023-03-20T11:47:26;97417.91;;;30.24;24.26
19596;BME280;9945;46.010;8.946;2023-03-20T11:49:55;97410.38;;;30.62;24.06
19596;BME280;9945;46.010;8.946;2023-03-20T11:52:24;97412.88;;;29.13;24.18
19596;BME280;9945;46.010;8.946;2023-03-20T11:54:55;97414.41;;;29.41;24.61
19596;BME280;9945;46.010;8.946;2023-03-20T11:57:31;97399.78;;;30.30;24.23
19596;BME280;9945;46.010;8.946;2023-03-20T12:00:03;97404.22;;;29.58;24.37
19596;BME280;9945;46.010;8.946;2023-03-20T12:02:30;97400.03;;;29.98;24.39
19596;BME280;9945;46.010;8.946;2023-03-20T12:04:59;97395.53;;;28.62;25.84
19596;BME280;9945;46.010;8.946;2023-03-20T12:07:29;97390.59;;;30.00;23.88
19596;BME280;9945;46.010;8.946;2023-03-20T12:10:01;97399.53;;;30.36;24.03
19596;BME280;9945;46.010;8.946;2023-03-20T12:12:37;97391.06;;;29.92;23.44
19596;BME280;9945;46.010;8.946;2023-03-20T12:15:13;97391.72;;;28.95;25.60
19596;BME280;9945;46.010;8.946;2023-03-20T12:17:46;97376.38;;;29.48;24.88
19596;BME280;9945;46.010;8.946;2023-03-20T12:20:21;97370.78;;;28.33;26.38
19596;BME280;9945;46.010;8.946;2023-03-20T12:22:55;97377.25;;;29.73;25.50
19596;BME280;9945;46.010;8.946;2023-03-20T12:25:26;97370.31;;;30.23;23.79
19596;BME280;9945;46.010;8.946;2023-03-20T12:28:02;97370.03;;;30.04;23.65
19596;BME280;9945;46.010;8.946;2023-03-20T12:30:40;97367.31;;;30.91;23.20
19596;BME280;9945;46.010;8.946;2023-03-20T12:33:14;97365.66;;;31.10;22.97
19596;BME280;9945;46.010;8.946;2023-03-20T12:35:47;97362.03;;;34.37;20.00
19596;BME280;9945;46.010;8.946;2023-03-20T12:38:22;97354.44;;;37.01;17.47
19596;BME280;9945;46.010;8.946;2023-03-20T12:40:54;97354.09;;;40.93;14.38
19596;BME280;9945;46.010;8.946;2023-03-20T12:43:26;97346.09;;;43.48;12.98
19596;BME280;9945;46.010;8.946;2023-03-20T12:46:02;97345.44;;;43.19;12.96
19596;BME280;9945;46.010;8.946;2023-03-20T12:48:52;97349.56;;;42.10;12.98
19596;BME280;9945;46.010;8.946;2023-03-20T12:51:25;97350.78;;;42.25;13.04
19596;BME280;9945;46.010;8.946;2023-03-20T12:54:07;97344.81;;;42.79;13.01
19596;BME280;9945;46.010;8.946;2023-03-20T12:56:49;97345.50;;;44.28;12.06
19596;BME280;9945;46.010;8.946;2023-03-20T12:59:25;97343.75;;;42.71;12.84
19596;BME280;9945;46.010;8.946;2023-03-20T13:01:58;97353.25;;;43.33;12.61
19596;BME280;9945;46.010;8.946;2023-03-20T13:04:47;97340.69;;;43.35;12.19
19596;BME280;9945;46.010;8.946;2023-03-20T13:07:18;97350.94;;;42.04;13.06
19596;BME280;9945;46.010;8.946;2023-03-20T13:12:52;97334.72;;;44.42;11.82
19596;BME280;9945;46.010;8.946;2023-03-20T13:15:30;97343.06;;;44.65;11.72
19596;BME280;9945;46.010;8.946;2023-03-20T13:18:05;97338.25;;;44.39;11.62
19596;BME280;9945;46.010;8.946;2023-03-20T13:20:35;97325.69;;;42.86;12.63
19596;BME280;9945;46.010;8.946;2023-03-20T13:23:11;97330.59;;;43.59;12.33
19596;BME280;9945;46.010;8.946;2023-03-20T13:26:06;97321.00;;;41.50;13.72
19596;BME280;9945;46.010;8.946;2023-03-20T13:28:43;97310.06;;;40.57;14.00
19596;BME280;9945;46.010;8.946;2023-03-20T13:31:22;97324.09;;;41.61;13.44
19596;BME280;9945;46.010;8.946;2023-03-20T13:33:56;97322.28;;;40.59;14.09
19596;BME280;9945;46.010;8.946;2023-03-20T13:36:37;97321.47;;;40.47;14.52